^^
Station Historical Data
Daily Summary for January 1, 2018 Units:  Both    English   Metric
« Previous Day
Next Day »
Daily Weekly Monthly Yearly Custom
  High: Low: Average:
Temperature: TemperatureF °F /  -17.8 °C 67.1 °F /  19.5 °C 77.9 °F /  25.5 °C
Dew Point: DewpointF °F /  -17.8 °C 22.1 °F /  -5.5 °C 31.5 °F /  -0.3 °C
Humidity: Humidity% 16% 18%
Wind Speed: WindSpeedMPHmph /  0km/h - -11mph /  -17.7km/h
Wind Gust: WindSpeedGustMPHmph /  0km/h - -
Wind- -
Pressure: PressureIn in /  0 hPa 30.05 in /  1017.5 hPa -
Precipitation: 0.00 in /  0 mm    
Historical Graphs
 
 
Tabular Data for January 1, 2018
Time Temperature Dew Point Pressure Wind Wind Speed Wind Gust Humidity Rainfall Rate (Hourly) solar Conditions
TemperatureF °F /  -17.8 °C DewpointF °F /  -17.8 °C PressureInin /  0hPa Calm     Humidity% HourlyPrecipInin /  0mm SoftwareType W/m2 Conditions
02:00 67.5 °F /  19.7 °C 23.7 °F /  -4.6 °C 30.08in /  1018.5hPa North -999.9mph /  -1609.1km/h -999.0mph /  -1607.7km/h 19% 0.00in /  0mm meteobridge W/m2
02:06 67.1 °F /  19.5 °C 22.1 °F /  -5.5 °C 30.08in /  1018.5hPa Calm   19.0mph /  30.6km/h 18% 0.00in /  0mm meteobridge W/m2
02:12 67.3 °F /  19.6 °C 23.5 °F /  -4.7 °C 30.08in /  1018.5hPa North 14.1mph /  22.7km/h 15.0mph /  24.1km/h 19% 0.00in /  0mm meteobridge W/m2
02:18 67.5 °F /  19.7 °C 23.7 °F /  -4.6 °C 30.09in /  1018.8hPa North 12.1mph /  19.5km/h 22.0mph /  35.4km/h 19% 0.00in /  0mm meteobridge W/m2
02:24 67.6 °F /  19.8 °C 23.9 °F /  -4.5 °C 30.10in /  1019.2hPa NNE 6.0mph /  9.7km/h 15.0mph /  24.1km/h 19% 0.00in /  0mm meteobridge W/m2
02:30 67.8 °F /  19.9 °C 22.8 °F /  -5.1 °C 30.10in /  1019.2hPa North 14.1mph /  22.7km/h 18.0mph /  29km/h 18% 0.00in /  0mm meteobridge W/m2
02:37 68.2 °F /  20.1 °C 24.3 °F /  -4.3 °C 30.10in /  1019.2hPa North 17.0mph /  27.4km/h 20.0mph /  32.2km/h 19% 0.00in /  0mm meteobridge W/m2
02:43 68.5 °F /  20.3 °C 23.4 °F /  -4.8 °C 30.11in /  1019.5hPa NNW 12.1mph /  19.5km/h 17.0mph /  27.4km/h 18% 0.00in /  0mm meteobridge W/m2
02:49 68.7 °F /  20.4 °C 23.5 °F /  -4.7 °C 30.11in /  1019.5hPa WNW 4.0mph /  6.4km/h 18.0mph /  29km/h 18% 0.00in /  0mm meteobridge W/m2
02:55 69.6 °F /  20.9 °C 22.8 °F /  -5.1 °C 30.11in /  1019.5hPa North 16.1mph /  25.9km/h 19.0mph /  30.6km/h 17% 0.00in /  0mm meteobridge W/m2
03:01 70.9 °F /  21.6 °C 25.3 °F /  -3.7 °C 30.10in /  1019.2hPa NNE 6.0mph /  9.7km/h 11.0mph /  17.7km/h 18% 0.00in /  0mm meteobridge W/m2
03:07 71.8 °F /  22.1 °C 24.6 °F /  -4.1 °C 30.10in /  1019.2hPa NNE 4.0mph /  6.4km/h 17.0mph /  27.4km/h 17% 0.00in /  0mm meteobridge W/m2
03:13 72.1 °F /  22.3 °C 25.0 °F /  -3.9 °C 30.11in /  1019.5hPa NNE 16.1mph /  25.9km/h 19.0mph /  30.6km/h 17% 0.00in /  0mm meteobridge W/m2
03:20 72.1 °F /  22.3 °C 25.0 °F /  -3.9 °C 30.11in /  1019.5hPa NNE 10.1mph /  16.3km/h 10.1mph /  16.3km/h 17% 0.00in /  0mm meteobridge W/m2
03:26 72.7 °F /  22.6 °C 25.3 °F /  -3.7 °C 30.11in /  1019.5hPa NE 11.0mph /  17.7km/h 15.0mph /  24.1km/h 17% 0.00in /  0mm meteobridge W/m2
03:32 72.7 °F /  22.6 °C 25.3 °F /  -3.7 °C 30.11in /  1019.5hPa NNE 4.0mph /  6.4km/h 11.0mph /  17.7km/h 17% 0.00in /  0mm meteobridge W/m2
03:38 72.7 °F /  22.6 °C 25.3 °F /  -3.7 °C 30.11in /  1019.5hPa NE 2.9mph /  4.7km/h 14.0mph /  22.5km/h 17% 0.00in /  0mm meteobridge W/m2
03:42 72.9 °F /  22.7 °C 25.5 °F /  -3.6 °C 30.11in /  1019.5hPa ENE 4.0mph /  6.4km/h 7.0mph /  11.3km/h 17% 0.00in /  0mm meteobridge W/m2
03:48 73.9 °F /  23.3 °C 26.4 °F /  -3.1 °C 30.11in /  1019.5hPa NNE 6.0mph /  9.7km/h 14.0mph /  22.5km/h 17% 0.00in /  0mm meteobridge W/m2
03:54 73.8 °F /  23.2 °C 26.2 °F /  -3.2 °C 30.11in /  1019.5hPa North 6.0mph /  9.7km/h 18.0mph /  29km/h 17% 0.00in /  0mm meteobridge W/m2
04:00 74.1 °F /  23.4 °C 26.6 °F /  -3 °C 30.11in /  1019.5hPa NNE 6.0mph /  9.7km/h 12.0mph /  19.3km/h 17% 0.00in /  0mm meteobridge W/m2
04:07 75.2 °F /  24 °C 25.9 °F /  -3.4 °C 30.11in /  1019.5hPa NW 0.9mph /  1.4km/h 5.0mph /  8km/h 16% 0.00in /  0mm meteobridge W/m2
04:13 75.7 °F /  24.3 °C 26.4 °F /  -3.1 °C 30.11in /  1019.5hPa SW 4.0mph /  6.4km/h 5.0mph /  8km/h 16% 0.00in /  0mm meteobridge W/m2
04:19 75.6 °F /  24.2 °C 27.7 °F /  -2.4 °C 30.12in /  1019.9hPa East 12.1mph /  19.5km/h 12.1mph /  19.5km/h 17% 0.00in /  0mm meteobridge W/m2
04:25 75.9 °F /  24.4 °C 26.4 °F /  -3.1 °C 30.11in /  1019.5hPa Calm   4.0mph /  6.4km/h 16% 0.00in /  0mm meteobridge W/m2
04:31 75.9 °F /  24.4 °C 28.0 °F /  -2.2 °C 30.11in /  1019.5hPa South 4.9mph /  7.9km/h 9.0mph /  14.5km/h 17% 0.00in /  0mm meteobridge W/m2
04:37 76.6 °F /  24.8 °C 28.6 °F /  -1.9 °C 30.11in /  1019.5hPa NNE 6.0mph /  9.7km/h 6.0mph /  9.7km/h 17% 0.00in /  0mm meteobridge W/m2
04:43 77.2 °F /  25.1 °C 28.9 °F /  -1.7 °C 30.11in /  1019.5hPa NNW 2.9mph /  4.7km/h 15.0mph /  24.1km/h 17% 0.00in /  0mm meteobridge W/m2
04:50 76.8 °F /  24.9 °C 28.8 °F /  -1.8 °C 30.11in /  1019.5hPa WNW 8.9mph /  14.3km/h 16.0mph /  25.7km/h 17% 0.00in /  0mm meteobridge W/m2
04:58 76.6 °F /  24.8 °C 28.6 °F /  -1.9 °C 30.10in /  1019.2hPa NW 12.1mph /  19.5km/h 12.1mph /  19.5km/h 17% 0.00in /  0mm meteobridge W/m2
05:00 77.2 °F /  25.1 °C 28.9 °F /  -1.7 °C 30.10in /  1019.2hPa NNE 6.9mph /  11.1km/h 14.0mph /  22.5km/h 17% 0.00in /  0mm meteobridge W/m2
05:06 77.4 °F /  25.2 °C 29.1 °F /  -1.6 °C 30.10in /  1019.2hPa North 12.1mph /  19.5km/h 16.0mph /  25.7km/h 17% 0.00in /  0mm meteobridge W/m2
05:12 77.4 °F /  25.2 °C 29.1 °F /  -1.6 °C 30.10in /  1019.2hPa NNW 8.1mph /  13km/h 17.0mph /  27.4km/h 17% 0.00in /  0mm meteobridge W/m2
05:18 77.7 °F /  25.4 °C 29.5 °F /  -1.4 °C 30.10in /  1019.2hPa NNE 11.0mph /  17.7km/h 12.0mph /  19.3km/h 17% 0.00in /  0mm meteobridge W/m2
05:24 78.4 °F /  25.8 °C 30.0 °F /  -1.1 °C 30.10in /  1019.2hPa SE 2.9mph /  4.7km/h 12.0mph /  19.3km/h 17% 0.00in /  0mm meteobridge W/m2
05:30 79.7 °F /  26.5 °C 31.1 °F /  -0.5 °C 30.10in /  1019.2hPa ENE 2.9mph /  4.7km/h 9.0mph /  14.5km/h 17% 0.00in /  0mm meteobridge W/m2
05:36 80.4 °F /  26.9 °C 31.6 °F /  -0.2 °C 30.10in /  1019.2hPa South 2.0mph /  3.2km/h 6.0mph /  9.7km/h 17% 0.00in /  0mm meteobridge W/m2
05:40 80.6 °F /  27 °C 31.8 °F /  -0.1 °C 30.10in /  1019.2hPa SE 2.0mph /  3.2km/h 7.0mph /  11.3km/h 17% 0.00in /  0mm meteobridge W/m2
05:44 80.4 °F /  26.9 °C 30.2 °F /  -1 °C 30.10in /  1019.2hPa Calm   8.0mph /  12.9km/h 16% 0.00in /  0mm meteobridge W/m2
05:50 80.1 °F /  26.7 °C 31.3 °F /  -0.4 °C 30.10in /  1019.2hPa South 10.1mph /  16.3km/h 11.0mph /  17.7km/h 17% 0.00in /  0mm meteobridge W/m2
05:56 79.7 °F /  26.5 °C 31.1 °F /  -0.5 °C 30.10in /  1019.2hPa South 6.9mph /  11.1km/h 14.0mph /  22.5km/h 17% 0.00in /  0mm meteobridge W/m2
06:04 79.9 °F /  26.6 °C 31.1 °F /  -0.5 °C 30.10in /  1019.2hPa South 8.9mph /  14.3km/h 15.0mph /  24.1km/h 17% 0.00in /  0mm meteobridge W/m2
06:11 80.2 °F /  26.8 °C 31.5 °F /  -0.3 °C 30.10in /  1019.2hPa Calm   9.0mph /  14.5km/h 17% 0.00in /  0mm meteobridge W/m2
06:17 82.0 °F /  27.8 °C 32.9 °F /  0.5 °C 30.09in /  1018.8hPa Calm   7.0mph /  11.3km/h 17% 0.00in /  0mm meteobridge W/m2
06:25 82.0 °F /  27.8 °C 34.3 °F /  1.3 °C 30.09in /  1018.8hPa South 12.1mph /  19.5km/h 15.0mph /  24.1km/h 18% 0.00in /  0mm meteobridge W/m2
06:31 80.6 °F /  27 °C 33.3 °F /  0.7 °C 30.09in /  1018.8hPa SSW 4.0mph /  6.4km/h 10.0mph /  16.1km/h 18% 0.00in /  0mm meteobridge W/m2
06:37 80.8 °F /  27.1 °C 34.7 °F /  1.5 °C 30.09in /  1018.8hPa SSE 4.9mph /  7.9km/h 12.0mph /  19.3km/h 19% 0.00in /  0mm meteobridge W/m2
06:43 81.7 °F /  27.6 °C 34.0 °F /  1.1 °C 30.09in /  1018.8hPa SSW 4.9mph /  7.9km/h 14.0mph /  22.5km/h 18% 0.00in /  0mm meteobridge W/m2
06:49 80.6 °F /  27 °C 33.3 °F /  0.7 °C 30.09in /  1018.8hPa North 11.0mph /  17.7km/h 11.0mph /  17.7km/h 18% 0.00in /  0mm meteobridge W/m2
06:56 81.3 °F /  27.4 °C 35.1 °F /  1.7 °C 30.09in /  1018.8hPa South 16.1mph /  25.9km/h 16.1mph /  25.9km/h 19% 0.00in /  0mm meteobridge W/m2
07:02 81.9 °F /  27.7 °C 34.2 °F /  1.2 °C 30.09in /  1018.8hPa North 2.0mph /  3.2km/h 9.0mph /  14.5km/h 18% 0.00in /  0mm meteobridge W/m2
07:08 82.9 °F /  28.3 °C 35.1 °F /  1.7 °C 30.09in /  1018.8hPa South 11.0mph /  17.7km/h 20.0mph /  32.2km/h 18% 0.00in /  0mm meteobridge W/m2
07:14 82.0 °F /  27.8 °C 34.3 °F /  1.3 °C 30.09in /  1018.8hPa North 4.9mph /  7.9km/h 11.0mph /  17.7km/h 18% 0.00in /  0mm meteobridge W/m2
07:20 82.6 °F /  28.1 °C 34.7 °F /  1.5 °C 30.09in /  1018.8hPa NE 4.0mph /  6.4km/h 7.0mph /  11.3km/h 18% 0.00in /  0mm meteobridge W/m2
07:26 82.0 °F /  27.8 °C 34.3 °F /  1.3 °C 30.08in /  1018.5hPa North 0.9mph /  1.4km/h 11.0mph /  17.7km/h 18% 0.00in /  0mm meteobridge W/m2
07:32 81.9 °F /  27.7 °C 34.2 °F /  1.2 °C 30.08in /  1018.5hPa NNW 0.9mph /  1.4km/h 12.0mph /  19.3km/h 18% 0.00in /  0mm meteobridge W/m2
07:38 82.0 °F /  27.8 °C 34.3 °F /  1.3 °C 30.08in /  1018.5hPa WNW 4.0mph /  6.4km/h 6.0mph /  9.7km/h 18% 0.00in /  0mm meteobridge W/m2
07:45 82.8 °F /  28.2 °C 34.9 °F /  1.6 °C 30.08in /  1018.5hPa SE 4.9mph /  7.9km/h 12.0mph /  19.3km/h 18% 0.00in /  0mm meteobridge W/m2
07:51 83.5 °F /  28.6 °C 35.6 °F /  2 °C 30.08in /  1018.5hPa SSW 2.0mph /  3.2km/h 6.0mph /  9.7km/h 18% 0.00in /  0mm meteobridge W/m2
07:57 83.5 °F /  28.6 °C 35.6 °F /  2 °C 30.07in /  1018.2hPa WNW 2.0mph /  3.2km/h 7.0mph /  11.3km/h 18% 0.00in /  0mm meteobridge W/m2
08:03 83.7 °F /  28.7 °C 35.6 °F /  2 °C 30.07in /  1018.2hPa North 2.9mph /  4.7km/h 14.0mph /  22.5km/h 18% 0.00in /  0mm meteobridge W/m2
08:07 83.5 °F /  28.6 °C 35.6 °F /  2 °C 30.07in /  1018.2hPa NNW 13.0mph /  20.9km/h 23.0mph /  37km/h 18% 0.00in /  0mm meteobridge W/m2
08:13 83.7 °F /  28.7 °C 35.6 °F /  2 °C 30.07in /  1018.2hPa SSW 8.9mph /  14.3km/h 11.0mph /  17.7km/h 18% 0.00in /  0mm meteobridge W/m2
08:19 83.1 °F /  28.4 °C 35.2 °F /  1.8 °C 30.07in /  1018.2hPa North 8.9mph /  14.3km/h 11.0mph /  17.7km/h 18% 0.00in /  0mm meteobridge W/m2
08:25 83.8 °F /  28.8 °C 35.8 °F /  2.1 °C 30.07in /  1018.2hPa SSE 11.0mph /  17.7km/h 11.0mph /  17.7km/h 18% 0.00in /  0mm meteobridge W/m2
08:31 82.8 °F /  28.2 °C 36.3 °F /  2.4 °C 30.07in /  1018.2hPa North 11.0mph /  17.7km/h 11.0mph /  17.7km/h 19% 0.00in /  0mm meteobridge W/m2
08:37 82.9 °F /  28.3 °C 36.5 °F /  2.5 °C 30.06in /  1017.8hPa NNW 13.0mph /  20.9km/h 14.0mph /  22.5km/h 19% 0.00in /  0mm meteobridge W/m2
08:39 83.1 °F /  28.4 °C 35.2 °F /  1.8 °C 30.06in /  1017.8hPa WNW 8.1mph /  13km/h 15.0mph /  24.1km/h 18% 0.00in /  0mm meteobridge W/m2
08:45 83.5 °F /  28.6 °C 35.6 °F /  2 °C 30.06in /  1017.8hPa West 17.9mph /  28.8km/h 18.0mph /  29km/h 18% 0.00in /  0mm meteobridge W/m2
08:52 82.9 °F /  28.3 °C 35.1 °F /  1.7 °C 30.07in /  1018.2hPa North 0.9mph /  1.4km/h 6.0mph /  9.7km/h 18% 0.00in /  0mm meteobridge W/m2
08:58 83.1 °F /  28.4 °C 36.7 °F /  2.6 °C 30.06in /  1017.8hPa Calm   11.0mph /  17.7km/h 19% 0.00in /  0mm meteobridge W/m2
09:04 83.1 °F /  28.4 °C 36.7 °F /  2.6 °C 30.05in /  1017.5hPa SSW 2.0mph /  3.2km/h 14.0mph /  22.5km/h 19% 0.00in /  0mm meteobridge W/m2
09:10 82.9 °F /  28.3 °C 35.1 °F /  1.7 °C 30.05in /  1017.5hPa SW 12.1mph /  19.5km/h 12.1mph /  19.5km/h 18% 0.00in /  0mm meteobridge W/m2
09:16 82.6 °F /  28.1 °C 34.7 °F /  1.5 °C 30.05in /  1017.5hPa NE 2.0mph /  3.2km/h 12.0mph /  19.3km/h 18% 0.00in /  0mm meteobridge W/m2
09:24 82.9 °F /  28.3 °C 35.1 °F /  1.7 °C 30.05in /  1017.5hPa NW 6.9mph /  11.1km/h 18.0mph /  29km/h 18% 0.00in /  0mm meteobridge W/m2
09:30 83.5 °F /  28.6 °C 35.6 °F /  2 °C 30.05in /  1017.5hPa North 4.0mph /  6.4km/h 6.0mph /  9.7km/h 18% 0.00in /  0mm meteobridge W/m2
09:36 84.4 °F /  29.1 °C 36.3 °F /  2.4 °C 30.05in /  1017.5hPa SE 17.0mph /  27.4km/h 17.0mph /  27.4km/h 18% 0.00in /  0mm meteobridge W/m2
09:43 82.6 °F /  28.1 °C 36.1 °F /  2.3 °C 30.05in /  1017.5hPa NNE 10.1mph /  16.3km/h 13.0mph /  20.9km/h 19% 0.00in /  0mm meteobridge W/m2
09:49 82.8 °F /  28.2 °C 36.3 °F /  2.4 °C 30.05in /  1017.5hPa North 6.9mph /  11.1km/h 13.0mph /  20.9km/h 19% 0.00in /  0mm meteobridge W/m2
09:55 82.4 °F /  28 °C 36.0 °F /  2.2 °C 30.05in /  1017.5hPa NW 4.9mph /  7.9km/h 9.0mph /  14.5km/h 19% 0.00in /  0mm meteobridge W/m2
10:01 82.9 °F /  28.3 °C 36.5 °F /  2.5 °C 30.05in /  1017.5hPa SSW 4.9mph /  7.9km/h 6.0mph /  9.7km/h 19% 0.00in /  0mm meteobridge W/m2
10:07 82.4 °F /  28 °C 36.0 °F /  2.2 °C 30.05in /  1017.5hPa SW 2.9mph /  4.7km/h 7.0mph /  11.3km/h 19% 0.00in /  0mm meteobridge W/m2
10:13 82.8 °F /  28.2 °C 36.3 °F /  2.4 °C 30.05in /  1017.5hPa East 2.9mph /  4.7km/h 11.0mph /  17.7km/h 19% 0.00in /  0mm meteobridge W/m2
10:17 83.1 °F /  28.4 °C 36.7 °F /  2.6 °C 30.05in /  1017.5hPa SSW 4.9mph /  7.9km/h 12.0mph /  19.3km/h 19% 0.00in /  0mm meteobridge W/m2
10:24 82.8 °F /  28.2 °C 34.9 °F /  1.6 °C 30.06in /  1017.8hPa SSE 4.0mph /  6.4km/h 14.0mph /  22.5km/h 18% 0.00in /  0mm meteobridge W/m2
10:30 82.2 °F /  27.9 °C 35.8 °F /  2.1 °C 30.06in /  1017.8hPa SE 0.9mph /  1.4km/h 11.0mph /  17.7km/h 19% 0.00in /  0mm meteobridge W/m2
10:36 82.0 °F /  27.8 °C 35.8 °F /  2.1 °C 30.05in /  1017.5hPa SSW 4.0mph /  6.4km/h 5.0mph /  8km/h 19% 0.00in /  0mm meteobridge W/m2
10:42 81.3 °F /  27.4 °C 35.1 °F /  1.7 °C 30.05in /  1017.5hPa South 6.0mph /  9.7km/h 21.0mph /  33.8km/h 19% 0.00in /  0mm meteobridge W/m2
10:48 81.3 °F /  27.4 °C 35.1 °F /  1.7 °C 30.05in /  1017.5hPa South 8.9mph /  14.3km/h 19.0mph /  30.6km/h 19% 0.00in /  0mm meteobridge W/m2
10:54 81.3 °F /  27.4 °C 35.1 °F /  1.7 °C 30.05in /  1017.5hPa SSE 15.0mph /  24.1km/h 16.0mph /  25.7km/h 19% 0.00in /  0mm meteobridge W/m2
11:00 81.3 °F /  27.4 °C 35.1 °F /  1.7 °C 30.05in /  1017.5hPa East 2.9mph /  4.7km/h 14.0mph /  22.5km/h 19% 0.00in /  0mm meteobridge W/m2
11:02 81.3 °F /  27.4 °C 35.1 °F /  1.7 °C 30.05in /  1017.5hPa SSE 6.0mph /  9.7km/h 7.0mph /  11.3km/h 19% 0.00in /  0mm meteobridge W/m2
11:08 81.1 °F /  27.3 °C 35.1 °F /  1.7 °C 30.05in /  1017.5hPa SSE 17.0mph /  27.4km/h 18.0mph /  29km/h 19% 0.00in /  0mm meteobridge W/m2
11:10 80.8 °F /  27.1 °C 34.7 °F /  1.5 °C 30.06in /  1017.8hPa SSW 11.0mph /  17.7km/h 19.0mph /  30.6km/h 19% 0.00in /  0mm meteobridge W/m2
11:17 80.4 °F /  26.9 °C 34.3 °F /  1.3 °C 30.06in /  1017.8hPa SSE 14.1mph /  22.7km/h 16.0mph /  25.7km/h 19% 0.00in /  0mm meteobridge W/m2
11:23 80.1 °F /  26.7 °C 34.2 °F /  1.2 °C 30.06in /  1017.8hPa SSW 0.9mph /  1.4km/h 11.0mph /  17.7km/h 19% 0.00in /  0mm meteobridge W/m2
11:29 80.1 °F /  26.7 °C 34.2 °F /  1.2 °C 30.06in /  1017.8hPa South 6.0mph /  9.7km/h 9.0mph /  14.5km/h 19% 0.00in /  0mm meteobridge W/m2
11:37 79.5 °F /  26.4 °C 33.6 °F /  0.9 °C 30.06in /  1017.8hPa South 8.9mph /  14.3km/h 13.0mph /  20.9km/h 19% 0.00in /  0mm meteobridge W/m2
11:43 79.2 °F /  26.2 °C 33.4 °F /  0.8 °C 30.06in /  1017.8hPa ESE 12.1mph /  19.5km/h 12.1mph /  19.5km/h 19% 0.00in /  0mm meteobridge W/m2
11:49 79.3 °F /  26.3 °C 33.4 °F /  0.8 °C 30.07in /  1018.2hPa SE 4.9mph /  7.9km/h 16.0mph /  25.7km/h 19% 0.00in /  0mm meteobridge W/m2
11:55 78.8 °F /  26 °C 33.1 °F /  0.6 °C 30.06in /  1017.8hPa South 12.1mph /  19.5km/h 14.0mph /  22.5km/h 19% 0.00in /  0mm meteobridge W/m2
12:02 78.4 °F /  25.8 °C 34.0 °F /  1.1 °C 30.07in /  1018.2hPa WSW 8.9mph /  14.3km/h 10.0mph /  16.1km/h 20% 0.00in /  0mm meteobridge W/m2
12:04 78.4 °F /  25.8 °C 34.0 °F /  1.1 °C 30.06in /  1017.8hPa South 11.0mph /  17.7km/h 13.0mph /  20.9km/h 20% 0.00in /  0mm meteobridge W/m2
12:10 78.1 °F /  25.6 °C 33.8 °F /  1 °C 30.06in /  1017.8hPa South 6.9mph /  11.1km/h 10.0mph /  16.1km/h 20% 0.00in /  0mm meteobridge W/m2
12:16 77.7 °F /  25.4 °C 33.4 °F /  0.8 °C 30.06in /  1017.8hPa South 4.0mph /  6.4km/h 7.0mph /  11.3km/h 20% 0.00in /  0mm meteobridge W/m2
12:22 77.4 °F /  25.2 °C 33.1 °F /  0.6 °C 30.07in /  1018.2hPa SSW 2.0mph /  3.2km/h 13.0mph /  20.9km/h 20% 0.00in /  0mm meteobridge W/m2
12:28 76.8 °F /  24.9 °C 32.7 °F /  0.4 °C 30.08in /  1018.5hPa South 4.0mph /  6.4km/h 11.0mph /  17.7km/h 20% 0.00in /  0mm meteobridge W/m2
12:34 76.8 °F /  24.9 °C 32.7 °F /  0.4 °C 30.08in /  1018.5hPa South 4.0mph /  6.4km/h 4.0mph /  6.4km/h 20% 0.00in /  0mm meteobridge W/m2
12:37 76.8 °F /  24.9 °C 32.7 °F /  0.4 °C 30.08in /  1018.5hPa South 4.0mph /  6.4km/h 4.0mph /  6.4km/h 20% 0.00in /  0mm meteobridge W/m2
12:43 76.8 °F /  24.9 °C 32.7 °F /  0.4 °C 30.08in /  1018.5hPa South 4.0mph /  6.4km/h -999.0mph /  -1607.7km/h 20% 0.00in /  0mm meteobridge W/m2
12:45 76.8 °F /  24.9 °C 32.7 °F /  0.4 °C 30.08in /  1018.5hPa South 4.0mph /  6.4km/h -999.0mph /  -1607.7km/h 20% 0.00in /  0mm meteobridge W/m2
12:49 76.8 °F /  24.9 °C 32.7 °F /  0.4 °C 30.08in /  1018.5hPa North -999.9mph /  -1609.1km/h -999.0mph /  -1607.7km/h 20% 0.00in /  0mm meteobridge W/m2
Regenstein, Windhoek, Namibia
Compliments of Weather Underground - 2.5 mb